Time;durP1;ratioP1;P1;durP2;ratioP2;P2;SDS_P1;SDS_P2;PMS_P1;PMS_P2;Temp;Humidity;BMP_temperature;BMP_pressure;BME280_temperature;BME280_humidity;BME280_pressure;Samples;Min_cycle;Max_cycle;Signal;HPM_P1;HPM_P2
2023/10/01 00:01:43;;;;;;;23.77;9.02;;;;;;;;;;5046552;28;20026;-83
2023/10/01 00:04:09;;;;;;;22.90;8.93;;;;;;;;;;5040653;28;20124;-83
2023/10/01 00:06:36;;;;;;;23.23;8.80;;;;;;;;;;5037779;28;20045;-83
2023/10/01 00:09:05;;;;;;;20.50;8.45;;;;;;;;;;5049929;28;20045;-83
2023/10/01 00:11:32;;;;;;;23.50;9.50;;;;;;;;;;5041346;28;20067;-81
2023/10/01 00:13:59;;;;;;;25.67;8.57;;;;;;;;;;5037478;28;20029;-82
2023/10/01 00:16:25;;;;;;;23.80;8.55;;;;;;;;;;5039920;28;20539;-82
2023/10/01 00:18:51;;;;;;;21.73;8.95;;;;;;;;;;5040929;28;20449;-82
2023/10/01 00:21:17;;;;;;;24.45;9.50;;;;;;;;;;5039894;28;20041;-82
2023/10/01 00:23:43;;;;;;;23.58;9.10;;;;;;;;;;5039030;28;20037;-82
2023/10/01 00:26:10;;;;;;;22.52;9.02;;;;;;;;;;5047471;28;20035;-83
2023/10/01 00:28:37;;;;;;;23.35;9.05;;;;;;;;;;5039672;28;20034;-83
2023/10/01 00:31:03;;;;;;;23.65;9.13;;;;;;;;;;5034469;28;20398;-80
2023/10/01 00:33:28;;;;;;;24.60;8.93;;;;;;;;;;5047399;28;20037;-82
2023/10/01 00:35:57;;;;;;;26.83;9.43;;;;;;;;;;5045484;28;20120;-82
2023/10/01 00:38:22;;;;;;;21.45;8.30;;;;;;;;;;5045474;28;20171;-82
2023/10/01 00:40:49;;;;;;;23.63;9.00;;;;;;;;;;5051466;28;20063;-82
2023/10/01 00:43:15;;;;;;;21.67;8.68;;;;;;;;;;5052366;28;20044;-82
2023/10/01 00:45:41;;;;;;;26.63;8.98;;;;;;;;;;5048378;28;20029;-82
2023/10/01 00:48:11;;;;;;;23.48;8.73;;;;;;;;;;5041264;28;20044;-82
2023/10/01 00:50:38;;;;;;;22.52;8.57;;;;;;;;;;5035427;28;20037;-81
2023/10/01 00:53:04;;;;;;;25.23;9.25;;;;;;;;;;5030666;28;20033;-81
2023/10/01 00:55:30;;;;;;;22.00;8.40;;;;;;;;;;5044617;28;20037;-82
2023/10/01 00:57:56;;;;;;;22.52;8.68;;;;;;;;;;5051959;28;20032;-82
2023/10/01 01:00:25;;;;;;;22.60;8.63;;;;;;;;;;5053642;28;20669;-81
2023/10/01 01:03:07;;;;;;;21.75;8.57;;;;;;;;;;5044322;28;20060;-84
2023/10/01 01:05:38;;;;;;;25.13;9.07;;;;;;;;;;5045362;28;20037;-84
2023/10/01 01:08:22;;;;;;;27.42;9.20;;;;;;;;;;5055032;28;20510;-80
2023/10/01 01:10:49;;;;;;;28.15;9.15;;;;;;;;;;5042664;28;20547;-82
2023/10/01 01:13:18;;;;;;;21.27;9.43;;;;;;;;;;5042485;28;20045;-82
2023/10/01 01:15:48;;;;;;;29.50;9.38;;;;;;;;;;5056132;28;20040;-82
2023/10/01 01:18:14;;;;;;;23.73;8.98;;;;;;;;;;5047909;28;20034;-84
2023/10/01 01:20:45;;;;;;;24.00;9.00;;;;;;;;;;5042336;28;20045;-84
2023/10/01 01:23:18;;;;;;;22.50;8.93;;;;;;;;;;5054098;28;20104;-83
2023/10/01 01:25:45;;;;;;;22.83;8.73;;;;;;;;;;5047098;28;20060;-83
2023/10/01 01:28:15;;;;;;;23.45;8.63;;;;;;;;;;5045188;28;20040;-83
2023/10/01 01:30:42;;;;;;;22.58;8.48;;;;;;;;;;5044670;28;20495;-83
2023/10/01 01:33:20;;;;;;;23.13;8.70;;;;;;;;;;5054800;28;20033;-83
2023/10/01 01:35:49;;;;;;;18.27;8.30;;;;;;;;;;5048094;28;20128;-83
2023/10/01 01:38:15;;;;;;;20.95;8.02;;;;;;;;;;5043067;28;20130;-82
2023/10/01 01:40:42;;;;;;;23.10;8.55;;;;;;;;;;5055304;28;20067;-83
2023/10/01 01:43:21;;;;;;;24.50;8.80;;;;;;;;;;5049711;28;20025;-83
2023/10/01 01:45:54;;;;;;;24.90;8.65;;;;;;;;;;5043949;28;20116;-83
2023/10/01 01:48:37;;;;;;;21.63;8.25;;;;;;;;;;5048424;28;20491;-83
2023/10/01 01:51:03;;;;;;;20.70;8.05;;;;;;;;;;5044702;28;20572;-82
2023/10/01 01:53:41;;;;;;;23.58;7.82;;;;;;;;;;5041051;28;20056;-83
2023/10/01 01:56:13;;;;;;;21.52;8.18;;;;;;;;;;5042301;28;20449;-83
2023/10/01 01:58:41;;;;;;;23.38;9.27;;;;;;;;;;5048095;28;20029;-83
2023/10/01 02:03:44;;;;;;;18.93;7.50;;;;;;;;;;5039473;28;20029;-83
2023/10/01 02:06:13;;;;;;;20.20;8.10;;;;;;;;;;5050567;28;20057;-83
2023/10/01 02:08:58;;;;;;;24.25;8.68;;;;;;;;;;5043855;28;20041;-82
2023/10/01 02:11:25;;;;;;;23.17;8.60;;;;;;;;;;5036581;28;20037;-82
2023/10/01 02:13:54;;;;;;;19.98;8.07;;;;;;;;;;5051541;28;20132;-82
2023/10/01 02:19:17;;;;;;;24.40;8.33;;;;;;;;;;5041243;28;20100;-82
2023/10/01 02:22:03;;;;;;;21.20;8.18;;;;;;;;;;5047476;28;20276;-82
2023/10/01 02:24:44;;;;;;;22.20;8.57;;;;;;;;;;5047701;28;20034;-82
2023/10/01 02:27:15;;;;;;;20.00;8.38;;;;;;;;;;5036891;28;20053;-83
2023/10/01 02:32:28;;;;;;;18.90;7.88;;;;;;;;;;5046924;28;20036;-83
2023/10/01 02:34:56;;;;;;;21.25;8.05;;;;;;;;;;5038251;28;20132;-83
2023/10/01 02:37:29;;;;;;;22.50;7.85;;;;;;;;;;5039123;28;20047;-82
2023/10/01 02:39:56;;;;;;;20.98;8.13;;;;;;;;;;5050096;28;20040;-82
2023/10/01 02:42:22;;;;;;;20.77;8.05;;;;;;;;;;5042423;28;20025;-81
2023/10/01 02:44:48;;;;;;;23.10;8.43;;;;;;;;;;5037343;28;20040;-83
2023/10/01 02:47:18;;;;;;;22.20;8.05;;;;;;;;;;5050113;28;20068;-83
2023/10/01 02:49:52;;;;;;;20.65;7.85;;;;;;;;;;5025233;28;20041;-83
2023/10/01 02:52:23;;;;;;;18.00;6.95;;;;;;;;;;5031833;28;20116;-84
2023/10/01 02:54:54;;;;;;;20.52;7.43;;;;;;;;;;5047988;28;20071;-84
2023/10/01 02:57:23;;;;;;;25.83;8.25;;;;;;;;;;5046995;28;20030;-83
2023/10/01 03:02:50;;;;;;;21.95;7.85;;;;;;;;;;5055884;28;20024;-83
2023/10/01 03:05:23;;;;;;;18.98;8.00;;;;;;;;;;5042060;28;20091;-84
2023/10/01 03:07:51;;;;;;;19.40;8.07;;;;;;;;;;5022865;28;20056;-84
2023/10/01 03:10:25;;;;;;;17.98;7.45;;;;;;;;;;5021404;28;20033;-83
2023/10/01 03:12:53;;;;;;;19.95;7.40;;;;;;;;;;5049226;28;20045;-83
2023/10/01 03:15:25;;;;;;;21.38;7.93;;;;;;;;;;5040883;28;20470;-83
2023/10/01 03:17:58;;;;;;;19.08;7.57;;;;;;;;;;5037946;28;20041;-83
2023/10/01 03:26:05;;;;;;;18.20;6.47;;;;;;;;;;5019141;28;20088;-83
2023/10/01 03:29:14;;;;;;;14.40;5.90;;;;;;;;;;5045425;28;20510;-83
2023/10/01 03:31:25;;;;;;;15.88;6.00;;;;;;;;;;5045886;28;20059;-82
2023/10/01 03:33:54;;;;;;;14.32;6.05;;;;;;;;;;5038813;28;20087;-83
2023/10/01 03:36:25;;;;;;;13.93;5.78;;;;;;;;;;5045916;28;20525;-83
2023/10/01 03:38:57;;;;;;;17.92;6.80;;;;;;;;;;5048426;28;20491;-83
2023/10/01 03:41:27;;;;;;;22.08;7.40;;;;;;;;;;5041805;28;20403;-81
2023/10/01 03:44:08;;;;;;;16.80;6.97;;;;;;;;;;5037988;28;20124;-82
2023/10/01 03:46:45;;;;;;;18.48;6.90;;;;;;;;;;5049230;28;20395;-83
2023/10/01 03:52:00;;;;;;;18.60;6.90;;;;;;;;;;5034625;28;20872;-83
2023/10/01 03:54:52;;;;;;;18.15;6.85;;;;;;;;;;5051053;28;20041;-83
2023/10/01 03:57:17;;;;;;;19.58;7.07;;;;;;;;;;5044277;28;20068;-83
2023/10/01 03:59:51;;;;;;;18.88;6.85;;;;;;;;;;5034624;28;20106;-81
2023/10/01 04:02:27;;;;;;;16.00;6.18;;;;;;;;;;5050156;28;20108;-83
2023/10/01 04:04:56;;;;;;;17.23;5.30;;;;;;;;;;5041795;28;20026;-83
2023/10/01 04:07:42;;;;;;;12.18;4.90;;;;;;;;;;5038071;28;20090;-82
2023/10/01 04:10:14;;;;;;;11.73;4.25;;;;;;;;;;5045145;28;20029;-83
2023/10/01 04:12:44;;;;;;;11.32;4.35;;;;;;;;;;5046201;28;20044;-81
2023/10/01 04:15:22;;;;;;;13.43;5.05;;;;;;;;;;5038465;28;20487;-82
2023/10/01 04:18:09;;;;;;;12.68;5.32;;;;;;;;;;5042286;28;20040;-81
2023/10/01 04:20:33;;;;;;;15.38;5.47;;;;;;;;;;5047011;28;20051;-82
2023/10/01 04:23:04;;;;;;;11.82;5.28;;;;;;;;;;5040260;28;20036;-82
2023/10/01 04:25:38;;;;;;;14.13;5.68;;;;;;;;;;5032858;28;20060;-82
2023/10/01 04:28:08;;;;;;;;;;;;;;;;;;5050765;28;20056;-80
2023/10/01 04:30:34;;;;;;;10.77;4.88;;;;;;;;;;5043409;28;19939;-81
2023/10/01 04:33:16;;;;;;;13.27;5.22;;;;;;;;;;5038242;28;20037;-82
2023/10/01 04:35:51;;;;;;;16.40;5.30;;;;;;;;;;5047458;28;20064;-82
2023/10/01 04:38:21;;;;;;;11.98;4.75;;;;;;;;;;5043175;28;20041;-82
2023/10/01 04:40:51;;;;;;;12.95;5.15;;;;;;;;;;5038085;28;20593;-82
2023/10/01 04:43:19;;;;;;;16.33;5.95;;;;;;;;;;5044585;28;20129;-83
2023/10/01 04:45:45;;;;;;;13.55;5.65;;;;;;;;;;5047490;28;20040;-82
2023/10/01 04:48:45;;;;;;;16.88;6.03;;;;;;;;;;5041692;28;20036;-82
2023/10/01 04:51:07;;;;;;;12.40;5.00;;;;;;;;;;5034744;28;20044;-82
2023/10/01 04:53:34;;;;;;;12.73;4.80;;;;;;;;;;5048431;28;20041;-83
2023/10/01 04:56:05;;;;;;;13.63;4.78;;;;;;;;;;5042233;28;20041;-83
2023/10/01 04:58:36;;;;;;;13.15;4.85;;;;;;;;;;5036537;28;20052;-83
2023/10/01 05:01:12;;;;;;;10.95;4.53;;;;;;;;;;5046875;28;20728;-83
2023/10/01 05:03:39;;;;;;;10.60;4.68;;;;;;;;;;5042263;28;20450;-83
2023/10/01 05:06:08;;;;;;;11.73;4.80;;;;;;;;;;5034811;28;20551;-83
2023/10/01 05:08:38;;;;;;;8.63;4.05;;;;;;;;;;5046340;28;20038;-81
2023/10/01 05:11:11;;;;;;;9.27;4.00;;;;;;;;;;5044317;28;20045;-81
2023/10/01 05:13:41;;;;;;;10.77;4.60;;;;;;;;;;5037296;28;20128;-81
2023/10/01 05:16:14;;;;;;;10.57;4.97;;;;;;;;;;5036140;28;20029;-83
2023/10/01 05:18:43;;;;;;;;;;;;;;;;;;5047066;28;20040;-82
2023/10/01 05:21:18;;;;;;;10.38;4.43;;;;;;;;;;5040165;28;19953;-82
2023/10/01 05:23:45;;;;;;;16.70;5.78;;;;;;;;;;5034850;28;20047;-82
2023/10/01 05:26:11;;;;;;;14.20;5.35;;;;;;;;;;5052647;28;20110;-84
2023/10/01 05:28:41;;;;;;;15.43;5.82;;;;;;;;;;5047029;28;20159;-83
2023/10/01 05:31:12;;;;;;;19.15;6.85;;;;;;;;;;5038004;28;20618;-82
2023/10/01 05:33:39;;;;;;;18.88;6.75;;;;;;;;;;5048607;28;20040;-82
2023/10/01 05:36:05;;;;;;;16.75;6.60;;;;;;;;;;5048468;28;20040;-83
2023/10/01 05:38:34;;;;;;;18.02;6.53;;;;;;;;;;5041858;28;20041;-82
2023/10/01 05:41:13;;;;;;;20.85;7.47;;;;;;;;;;5021360;28;20045;-82
2023/10/01 05:43:43;;;;;;;20.25;7.53;;;;;;;;;;5050648;28;20045;-82
2023/10/01 05:46:13;;;;;;;21.35;7.20;;;;;;;;;;5044376;28;20041;-82
2023/10/01 05:48:39;;;;;;;18.65;6.85;;;;;;;;;;5038978;28;20034;-82
2023/10/01 05:51:14;;;;;;;20.77;7.63;;;;;;;;;;5043282;28;20025;-82
2023/10/01 05:53:43;;;;;;;20.63;7.93;;;;;;;;;;5046253;28;20037;-82
2023/10/01 05:56:17;;;;;;;22.73;7.65;;;;;;;;;;5040012;28;20411;-83
2023/10/01 05:58:43;;;;;;;19.33;7.30;;;;;;;;;;5050060;28;20037;-83
2023/10/01 06:01:16;;;;;;;21.65;7.75;;;;;;;;;;5046624;28;20033;-83
2023/10/01 06:03:42;;;;;;;20.27;8.15;;;;;;;;;;5053768;28;20069;-83
2023/10/01 06:06:09;;;;;;;19.02;7.28;;;;;;;;;;5041768;28;20056;-82
2023/10/01 06:08:45;;;;;;;24.38;8.20;;;;;;;;;;5048696;28;20033;-81
2023/10/01 06:11:15;;;;;;;21.13;8.13;;;;;;;;;;5041786;28;20083;-82
2023/10/01 06:13:49;;;;;;;23.63;7.50;;;;;;;;;;5036373;28;20036;-83
2023/10/01 06:16:22;;;;;;;18.48;7.63;;;;;;;;;;5050590;28;20071;-83
2023/10/01 06:18:57;;;;;;;21.92;7.70;;;;;;;;;;5044081;28;20097;-81
2023/10/01 06:21:31;;;;;;;17.25;6.43;;;;;;;;;;5037519;28;20060;-82
2023/10/01 06:24:04;;;;;;;14.65;6.07;;;;;;;;;;5050753;28;20104;-83
2023/10/01 06:26:36;;;;;;;19.02;6.97;;;;;;;;;;5046759;28;20178;-82
2023/10/01 06:29:11;;;;;;;16.67;6.05;;;;;;;;;;5041348;28;20041;-82
2023/10/01 06:32:00;;;;;;;20.60;6.97;;;;;;;;;;5055785;28;20037;-82
2023/10/01 06:34:27;;;;;;;15.65;6.78;;;;;;;;;;5042105;28;20514;-83
2023/10/01 06:36:58;;;;;;;16.67;6.80;;;;;;;;;;5038776;28;20026;-83
2023/10/01 06:39:35;;;;;;;18.17;7.00;;;;;;;;;;5042175;28;20025;-82
2023/10/01 06:42:19;;;;;;;17.33;7.50;;;;;;;;;;5027494;28;20028;-83
2023/10/01 06:44:55;;;;;;;18.83;7.32;;;;;;;;;;5041673;28;20059;-83
2023/10/01 06:47:26;;;;;;;23.13;7.68;;;;;;;;;;5039545;28;20060;-83
2023/10/01 06:52:34;;;;;;;19.50;7.80;;;;;;;;;;5043053;28;20037;-82
2023/10/01 06:55:04;;;;;;;20.60;7.70;;;;;;;;;;5038038;28;20037;-83
2023/10/01 06:57:35;;;;;;;19.65;7.63;;;;;;;;;;5045928;28;20032;-83
2023/10/01 07:00:04;;;;;;;19.92;7.70;;;;;;;;;;5043766;28;20034;-83
2023/10/01 07:02:29;;;;;;;24.15;8.55;;;;;;;;;;5039261;28;20056;-83
2023/10/01 07:04:56;;;;;;;21.42;7.85;;;;;;;;;;5045180;28;20487;-84
2023/10/01 07:07:26;;;;;;;25.08;7.95;;;;;;;;;;5047990;28;20021;-84
2023/10/01 07:09:56;;;;;;;19.92;7.78;;;;;;;;;;5041874;28;20037;-82
2023/10/01 07:12:23;;;;;;;21.13;7.57;;;;;;;;;;5053644;28;20060;-83
2023/10/01 07:14:53;;;;;;;20.40;7.97;;;;;;;;;;5050476;28;20041;-82
2023/10/01 07:17:23;;;;;;;20.88;7.93;;;;;;;;;;5044293;28;20087;-84
2023/10/01 07:20:02;;;;;;;22.20;7.72;;;;;;;;;;5037137;28;20124;-83
2023/10/01 07:22:31;;;;;;;20.35;8.15;;;;;;;;;;5047349;28;20032;-82
2023/10/01 07:25:00;;;;;;;19.85;7.97;;;;;;;;;;5046083;28;20041;-83
2023/10/01 07:27:27;;;;;;;19.77;7.72;;;;;;;;;;5037178;28;20068;-83
2023/10/01 07:29:54;;;;;;;18.08;7.70;;;;;;;;;;5044153;28;20025;-84
2023/10/01 07:32:22;;;;;;;20.23;7.65;;;;;;;;;;5047684;28;20030;-84
2023/10/01 07:34:58;;;;;;;21.35;8.02;;;;;;;;;;5041218;28;20037;-85
2023/10/01 07:37:25;;;;;;;19.92;8.10;;;;;;;;;;5033968;28;20419;-83
2023/10/01 07:39:55;;;;;;;21.85;8.25;;;;;;;;;;5049313;28;20449;-83
2023/10/01 07:42:25;;;;;;;20.02;7.72;;;;;;;;;;5042525;28;20044;-82
2023/10/01 07:44:52;;;;;;;21.73;7.85;;;;;;;;;;5036725;28;20515;-83
2023/10/01 07:47:32;;;;;;;21.13;7.85;;;;;;;;;;5044761;28;20055;-83
2023/10/01 07:50:01;;;;;;;17.70;7.65;;;;;;;;;;5038599;28;20034;-83
2023/10/01 07:52:26;;;;;;;21.20;7.95;;;;;;;;;;5036263;28;20058;-83
2023/10/01 07:54:55;;;;;;;29.48;8.38;;;;;;;;;;5043646;28;20037;-83
2023/10/01 07:57:27;;;;;;;18.35;7.97;;;;;;;;;;5047094;28;20514;-84
2023/10/01 07:59:59;;;;;;;20.77;8.10;;;;;;;;;;5040553;28;20032;-83
2023/10/01 08:02:28;;;;;;;16.93;7.53;;;;;;;;;;5034929;28;20033;-83
2023/10/01 08:04:58;;;;;;;18.88;7.97;;;;;;;;;;5049282;28;20044;-84
2023/10/01 08:07:39;;;;;;;22.40;7.72;;;;;;;;;;5042702;28;20037;-84
2023/10/01 08:10:16;;;;;;;20.77;7.65;;;;;;;;;;5035007;28;20112;-84
2023/10/01 08:15:29;;;;;;;20.23;7.45;;;;;;;;;;5043819;28;20060;-83
2023/10/01 08:21:02;;;;;;;20.23;8.23;;;;;;;;;;5047220;28;20478;-84
2023/10/01 08:23:31;;;;;;;20.45;8.27;;;;;;;;;;5044568;28;20410;-81
2023/10/01 08:25:58;;;;;;;22.00;8.07;;;;;;;;;;5037598;28;20041;-84
2023/10/01 08:31:01;;;;;;;17.58;7.63;;;;;;;;;;5045794;28;20083;-84
2023/10/01 08:33:42;;;;;;;19.48;8.13;;;;;;;;;;5039115;28;20041;-83
2023/10/01 08:36:13;;;;;;;21.95;8.25;;;;;;;;;;5036664;28;20098;-84
2023/10/01 08:39:19;;;;;;;19.80;7.95;;;;;;;;;;5047987;28;20041;-84
2023/10/01 08:41:50;;;;;;;20.27;7.85;;;;;;;;;;5035179;28;20124;-82
2023/10/01 08:44:20;;;;;;;19.33;8.10;;;;;;;;;;5036065;28;20145;-83
2023/10/01 08:46:47;;;;;;;20.73;8.40;;;;;;;;;;5048104;28;20061;-83
2023/10/01 08:49:30;;;;;;;21.90;8.63;;;;;;;;;;5042044;28;20071;-84
2023/10/01 08:52:19;;;;;;;20.85;8.30;;;;;;;;;;5033704;28;20037;-84
2023/10/01 08:54:45;;;;;;;17.88;7.93;;;;;;;;;;5048259;28;20045;-83
2023/10/01 08:57:35;;;;;;;22.23;8.73;;;;;;;;;;5043195;28;20121;-83
2023/10/01 09:00:23;;;;;;;19.50;8.02;;;;;;;;;;5039249;28;20079;-83
2023/10/01 09:02:50;;;;;;;22.50;8.30;;;;;;;;;;5053751;28;20035;-84
2023/10/01 09:05:23;;;;;;;19.50;8.15;;;;;;;;;;5049015;28;20033;-82
2023/10/01 09:07:50;;;;;;;;;;;;;;;;;;5041274;28;20052;-81
2023/10/01 09:10:19;;;;;;;19.23;7.53;;;;;;;;;;5048087;28;19920;-84
2023/10/01 09:12:48;;;;;;;18.38;7.85;;;;;;;;;;5049399;28;20041;-84
2023/10/01 09:15:27;;;;;;;19.00;8.30;;;;;;;;;;5043116;28;20091;-84
2023/10/01 09:17:56;;;;;;;18.58;7.93;;;;;;;;;;5041670;28;20033;-84
2023/10/01 09:23:54;;;;;;;20.63;8.48;;;;;;;;;;5042290;28;20648;-83
2023/10/01 09:26:53;;;;;;;22.80;8.00;;;;;;;;;;5058054;28;20047;-85
2023/10/01 09:29:23;;;;;;;23.42;8.15;;;;;;;;;;5048897;28;20121;-84
2023/10/01 09:31:52;;;;;;;19.15;8.32;;;;;;;;;;5040048;28;20056;-84
2023/10/01 09:34:31;;;;;;;17.10;8.50;;;;;;;;;;5039754;28;20097;-83
2023/10/01 09:37:42;;;;;;;21.48;8.73;;;;;;;;;;5050812;28;20044;-84
2023/10/01 09:42:57;;;;;;;21.10;8.55;;;;;;;;;;5040091;28;20108;-84
2023/10/01 09:45:34;;;;;;;19.05;8.07;;;;;;;;;;5050551;28;20450;-84
2023/10/01 09:48:07;;;;;;;19.63;8.95;;;;;;;;;;5043356;28;20457;-84
2023/10/01 09:50:42;;;;;;;20.83;8.88;;;;;;;;;;5036756;28;20029;-85
2023/10/01 09:53:17;;;;;;;20.85;9.18;;;;;;;;;;5051883;28;20493;-85
2023/10/01 09:55:47;;;;;;;20.98;8.93;;;;;;;;;;5044999;28;20108;-84
2023/10/01 09:58:20;;;;;;;22.38;9.05;;;;;;;;;;5038194;28;20045;-85
2023/10/01 10:00:49;;;;;;;21.15;9.00;;;;;;;;;;5045045;28;20437;-84
2023/10/01 10:03:16;;;;;;;19.95;8.88;;;;;;;;;;5047335;28;20041;-83
2023/10/01 10:05:43;;;;;;;19.50;9.05;;;;;;;;;;5041503;28;20120;-84
2023/10/01 10:08:15;;;;;;;18.85;8.50;;;;;;;;;;5042796;28;20044;-84
2023/10/01 10:10:49;;;;;;;19.87;8.90;;;;;;;;;;5047842;28;20509;-84
2023/10/01 10:13:46;;;;;;;19.88;8.52;;;;;;;;;;5043735;28;20037;-84
2023/10/01 10:16:34;;;;;;;19.45;8.13;;;;;;;;;;5040157;28;20068;-84
2023/10/01 10:19:47;;;;;;;19.95;8.63;;;;;;;;;;5049489;28;20406;-85
2023/10/01 10:24:29;;;;;;;23.80;9.13;;;;;;;;;;5037466;28;20037;-84
2023/10/01 10:27:15;;;;;;;19.10;8.77;;;;;;;;;;5032544;28;20490;-85
2023/10/01 10:29:47;;;;;;;22.92;8.93;;;;;;;;;;5042932;28;20104;-85
2023/10/01 10:32:13;;;;;;;20.80;8.52;;;;;;;;;;5037374;28;20053;-84
2023/10/01 10:35:04;;;;;;;20.55;8.73;;;;;;;;;;5050163;28;20035;-85
2023/10/01 10:40:26;;;;;;;21.05;8.65;;;;;;;;;;5049015;28;20514;-85
2023/10/01 10:42:57;;;;;;;20.33;8.38;;;;;;;;;;5050158;28;20045;-85
2023/10/01 10:45:26;;;;;;;19.48;8.95;;;;;;;;;;5042895;28;20052;-84
2023/10/01 10:48:04;;;;;;;21.05;8.35;;;;;;;;;;5039900;28;20384;-85
2023/10/01 10:50:58;;;;;;;18.58;8.38;;;;;;;;;;5044902;28;20044;-82
2023/10/01 10:53:37;;;;;;;17.70;8.10;;;;;;;;;;5045249;28;20037;-84
2023/10/01 10:56:10;;;;;;;18.23;8.20;;;;;;;;;;5039240;28;20087;-84
2023/10/01 10:58:46;;;;;;;21.33;9.20;;;;;;;;;;5026987;28;20057;-84
2023/10/01 11:01:18;;;;;;;21.80;8.60;;;;;;;;;;5039951;28;20080;-84
2023/10/01 11:03:54;;;;;;;17.98;8.38;;;;;;;;;;5041831;28;20033;-84
2023/10/01 11:06:22;;;;;;;17.42;7.68;;;;;;;;;;5038693;28;20102;-84
2023/10/01 11:08:50;;;;;;;19.50;8.40;;;;;;;;;;5048205;28;20175;-84
2023/10/01 11:11:41;;;;;;;20.40;8.95;;;;;;;;;;5042776;28;20037;-84
2023/10/01 11:14:16;;;;;;;19.00;8.00;;;;;;;;;;5036714;28;20037;-84
2023/10/01 11:16:46;;;;;;;19.58;8.88;;;;;;;;;;5029982;28;20099;-85
2023/10/01 11:19:13;;;;;;;18.88;8.25;;;;;;;;;;5042369;28;20037;-84
2023/10/01 11:22:00;;;;;;;19.23;8.25;;;;;;;;;;5038049;28;20110;-85
2023/10/01 11:24:41;;;;;;;18.80;8.20;;;;;;;;;;5048798;28;20051;-84
2023/10/01 11:27:43;;;;;;;19.48;8.07;;;;;;;;;;5045003;28;20048;-84
2023/10/01 11:30:15;;;;;;;20.90;8.57;;;;;;;;;;5036817;28;20048;-83
2023/10/01 11:32:58;;;;;;;20.63;8.15;;;;;;;;;;5045651;28;20093;-83
2023/10/01 11:35:32;;;;;;;19.83;8.55;;;;;;;;;;5041228;28;20102;-84
2023/10/01 11:38:07;;;;;;;20.40;8.75;;;;;;;;;;5034496;28;20060;-83
2023/10/01 11:43:27;;;;;;;17.95;8.63;;;;;;;;;;5045121;28;20036;-83
2023/10/01 11:46:23;;;;;;;19.83;8.82;;;;;;;;;;5039850;28;20037;-84
2023/10/01 11:49:04;;;;;;;17.40;8.25;;;;;;;;;;5040719;28;20083;-84
2023/10/01 11:51:48;;;;;;;19.17;7.97;;;;;;;;;;5045336;28;20033;-83
2023/10/01 11:54:14;;;;;;;;;;;;;;;;;;5039702;28;20045;-84
2023/10/01 11:56:46;;;;;;;19.10;8.23;;;;;;;;;;5039440;28;20255;-83
2023/10/01 11:59:18;;;;;;;20.55;8.77;;;;;;;;;;5047340;28;20048;-84
2023/10/01 12:01:49;;;;;;;19.30;8.77;;;;;;;;;;5040858;28;20044;-84
2023/10/01 12:04:21;;;;;;;18.65;7.72;;;;;;;;;;5036390;28;20083;-83
2023/10/01 12:06:56;;;;;;;20.48;8.68;;;;;;;;;;5049618;28;20080;-84
2023/10/01 12:09:24;;;;;;;20.90;8.70;;;;;;;;;;5042034;28;20495;-83
2023/10/01 12:12:03;;;;;;;18.60;8.20;;;;;;;;;;5035285;28;20511;-84
2023/10/01 12:14:32;;;;;;;17.95;8.20;;;;;;;;;;5048575;28;20052;-84
2023/10/01 12:17:01;;;;;;;19.45;8.50;;;;;;;;;;5043316;28;20510;-83
2023/10/01 12:19:29;;;;;;;19.02;8.35;;;;;;;;;;5039732;28;20061;-84
2023/10/01 12:22:07;;;;;;;19.02;8.45;;;;;;;;;;5040529;28;20111;-84
2023/10/01 12:24:49;;;;;;;25.15;8.25;;;;;;;;;;5039512;28;20492;-84
2023/10/01 12:27:37;;;;;;;16.65;7.82;;;;;;;;;;5040013;28;20620;-83
2023/10/01 12:30:00;;;;;;;18.52;8.07;;;;;;;;;;5039464;28;20059;-84
2023/10/01 12:32:40;;;;;;;17.88;8.07;;;;;;;;;;5044733;28;20637;-84
2023/10/01 12:35:20;;;;;;;19.58;8.70;;;;;;;;;;5040107;28;20124;-85
2023/10/01 12:37:45;;;;;;;17.38;7.80;;;;;;;;;;5035067;28;20041;-84
2023/10/01 12:40:16;;;;;;;21.63;8.60;;;;;;;;;;5048210;28;20392;-85
2023/10/01 12:42:50;;;;;;;19.23;8.38;;;;;;;;;;5039035;28;20132;-84
2023/10/01 12:45:19;;;;;;;17.27;8.30;;;;;;;;;;5034189;28;20127;-85
2023/10/01 12:47:51;;;;;;;20.70;8.38;;;;;;;;;;5045781;28;20044;-84
2023/10/01 12:50:26;;;;;;;19.45;7.85;;;;;;;;;;5043036;28;20032;-84
2023/10/01 12:55:42;;;;;;;19.70;8.55;;;;;;;;;;5037105;28;20033;-85
2023/10/01 12:58:07;;;;;;;18.45;8.65;;;;;;;;;;5046067;28;20045;-85
2023/10/01 13:00:45;;;;;;;18.35;8.20;;;;;;;;;;5039832;28;20045;-84
2023/10/01 13:03:19;;;;;;;17.33;8.60;;;;;;;;;;5036665;28;20048;-84
2023/10/01 13:05:46;;;;;;;17.88;7.82;;;;;;;;;;5047178;28;20033;-82
2023/10/01 13:08:27;;;;;;;19.88;9.23;;;;;;;;;;5041872;28;20038;-85
2023/10/01 13:10:59;;;;;;;17.95;8.18;;;;;;;;;;5033742;28;20041;-84
2023/10/01 13:13:31;;;;;;;18.95;8.07;;;;;;;;;;5043251;28;20041;-85
2023/10/01 13:15:57;;;;;;;19.67;8.02;;;;;;;;;;5043299;28;20184;-84
2023/10/01 13:18:28;;;;;;;19.45;8.50;;;;;;;;;;5036727;28;20041;-83
2023/10/01 13:23:28;;;;;;;19.42;8.48;;;;;;;;;;5044815;28;20033;-83
2023/10/01 13:26:06;;;;;;;17.58;8.30;;;;;;;;;;5035894;28;20171;-84
2023/10/01 13:29:00;;;;;;;18.77;8.75;;;;;;;;;;5038211;28;20044;-83
2023/10/01 14:09:16;;;;;;;20.88;8.65;;;;;;;;;;5037353;28;20041;-84
2023/10/01 14:11:41;;;;;;;18.75;8.23;;;;;;;;;;5048765;28;20051;-84
2023/10/01 14:14:08;;;;;;;19.52;7.88;;;;;;;;;;5045718;28;20037;-84
2023/10/01 14:16:34;;;;;;;16.85;8.25;;;;;;;;;;5040502;28;20087;-84
2023/10/01 14:19:14;;;;;;;19.75;8.68;;;;;;;;;;5044940;28;20068;-85
2023/10/01 14:21:40;;;;;;;18.25;8.05;;;;;;;;;;5047744;28;20033;-85
2023/10/01 14:24:21;;;;;;;19.50;8.23;;;;;;;;;;5042773;28;20083;-85
2023/10/01 14:26:50;;;;;;;19.38;8.20;;;;;;;;;;5041487;28;20042;-85
2023/10/01 14:29:22;;;;;;;19.80;8.52;;;;;;;;;;5050663;28;20072;-85
2023/10/01 14:31:53;;;;;;;18.23;8.32;;;;;;;;;;5040529;28;20131;-83
2023/10/01 14:34:20;;;;;;;18.80;8.15;;;;;;;;;;5036163;28;20041;-84
2023/10/01 14:36:51;;;;;;;19.27;8.48;;;;;;;;;;5049839;28;20040;-84
2023/10/01 14:39:18;;;;;;;19.42;8.13;;;;;;;;;;5044322;28;20063;-84
2023/10/01 14:41:45;;;;;;;21.70;8.98;;;;;;;;;;5038831;28;20033;-84
2023/10/01 14:44:14;;;;;;;21.67;9.25;;;;;;;;;;5045814;28;20036;-84
2023/10/01 14:46:57;;;;;;;23.73;8.63;;;;;;;;;;5046718;28;20506;-84
2023/10/01 14:49:23;;;;;;;17.55;8.50;;;;;;;;;;5040080;28;20488;-84
2023/10/01 14:51:53;;;;;;;19.05;8.30;;;;;;;;;;5037095;28;20082;-85
2023/10/01 14:54:18;;;;;;;19.25;8.80;;;;;;;;;;5048313;28;20045;-84
2023/10/01 14:56:54;;;;;;;24.38;8.85;;;;;;;;;;5042277;28;20033;-84
2023/10/01 14:59:21;;;;;;;21.70;8.77;;;;;;;;;;5034900;28;20041;-84
2023/10/01 15:01:50;;;;;;;19.65;8.90;;;;;;;;;;5048493;28;20080;-84
2023/10/01 15:04:20;;;;;;;17.63;8.40;;;;;;;;;;5044931;28;20488;-83
2023/10/01 15:07:00;;;;;;;22.27;8.82;;;;;;;;;;5039459;28;20068;-83
2023/10/01 15:09:39;;;;;;;18.88;8.07;;;;;;;;;;5046342;28;20075;-83
2023/10/01 15:12:07;;;;;;;17.33;8.18;;;;;;;;;;5044074;28;20043;-83
2023/10/01 15:14:33;;;;;;;19.48;8.88;;;;;;;;;;5041020;28;20041;-84
2023/10/01 15:17:03;;;;;;;18.00;8.15;;;;;;;;;;5038561;28;20059;-84
2023/10/01 15:19:30;;;;;;;21.77;8.80;;;;;;;;;;5048834;28;20058;-84
2023/10/01 15:22:03;;;;;;;18.65;8.30;;;;;;;;;;5042123;28;20041;-83
2023/10/01 15:24:29;;;;;;;22.40;8.77;;;;;;;;;;5036718;28;20088;-83
2023/10/01 15:26:58;;;;;;;18.02;8.32;;;;;;;;;;5049771;28;20099;-84
2023/10/01 15:29:31;;;;;;;18.60;8.80;;;;;;;;;;5042969;28;20036;-84
2023/10/01 15:32:00;;;;;;;20.45;8.55;;;;;;;;;;5036703;28;20091;-84
2023/10/01 15:34:27;;;;;;;22.52;9.82;;;;;;;;;;5045640;28;20035;-83
2023/10/01 15:36:53;;;;;;;20.80;8.88;;;;;;;;;;5046986;28;20033;-83
2023/10/01 15:42:11;;;;;;;19.63;8.40;;;;;;;;;;5037831;28;20167;-83
2023/10/01 15:44:50;;;;;;;19.55;8.48;;;;;;;;;;5044686;28;20128;-82
2023/10/01 15:47:26;;;;;;;18.83;8.18;;;;;;;;;;5036265;28;20037;-84
2023/10/01 15:50:05;;;;;;;18.92;8.32;;;;;;;;;;5034343;28;20063;-83
2023/10/01 15:52:37;;;;;;;18.67;8.48;;;;;;;;;;5046119;28;20033;-84
2023/10/01 15:55:06;;;;;;;20.60;9.27;;;;;;;;;;5039880;28;20047;-83
2023/10/01 15:57:36;;;;;;;19.80;9.45;;;;;;;;;;5034010;28;20087;-83
2023/10/01 16:00:25;;;;;;;20.40;9.90;;;;;;;;;;5048104;28;20068;-83
2023/10/01 16:03:02;;;;;;;23.98;10.50;;;;;;;;;;5041143;28;20026;-83
2023/10/01 16:05:45;;;;;;;21.85;9.20;;;;;;;;;;5037759;28;20055;-83
2023/10/01 16:08:26;;;;;;;18.35;8.05;;;;;;;;;;5044867;28;20050;-83
2023/10/01 16:10:58;;;;;;;20.70;8.57;;;;;;;;;;5038663;28;20051;-84
2023/10/01 16:13:28;;;;;;;19.80;8.70;;;;;;;;;;5038012;28;20044;-81
2023/10/01 16:16:03;;;;;;;21.20;8.50;;;;;;;;;;5042854;28;20457;-83
2023/10/01 16:18:44;;;;;;;20.90;8.45;;;;;;;;;;5044965;28;20045;-83
2023/10/01 16:21:19;;;;;;;18.63;8.30;;;;;;;;;;5034395;28;20042;-84
2023/10/01 16:23:56;;;;;;;17.65;7.78;;;;;;;;;;5039976;28;20052;-84
2023/10/01 16:26:22;;;;;;;18.42;7.97;;;;;;;;;;5043291;28;20095;-83
2023/10/01 16:28:47;;;;;;;19.92;8.35;;;;;;;;;;5041787;28;20045;-83
2023/10/01 16:31:16;;;;;;;21.23;8.35;;;;;;;;;;5034983;28;20108;-83
2023/10/01 16:33:52;;;;;;;18.42;8.07;;;;;;;;;;5030855;28;20120;-83